Time;durP1;ratioP1;P1;durP2;ratioP2;P2;SDS_P1;SDS_P2;PMS_P1;PMS_P2;Temp;Humidity;BMP_temperature;BMP_pressure;BME280_temperature;BME280_humidity;BME280_pressure;Samples;Min_cycle;Max_cycle;Signal;HPM_P1;HPM_P2
2021/07/15 00:02:17;;;;;;;24.38;12.23;;;;;;;24.30;63.22;99930.44;5088804;28;20047;-22
2021/07/15 00:04:42;;;;;;;16.30;11.50;;;;;;;24.06;64.21;99923.44;5089060;28;20085;-23
2021/07/15 00:07:08;;;;;;;19.38;11.70;;;;;;;24.15;64.07;99941.75;5088887;28;20086;-23
2021/07/15 00:09:34;;;;;;;15.65;12.27;;;;;;;23.86;64.90;99937.56;5088903;28;20123;-22
2021/07/15 00:11:59;;;;;;;16.08;11.60;;;;;;;23.99;64.68;99950.31;5071006;28;20373;-23
2021/07/15 00:14:25;;;;;;;16.77;12.25;;;;;;;24.46;62.10;99948.00;5088862;28;20799;-23
2021/07/15 00:16:53;;;;;;;18.83;12.95;;;;;;;24.30;62.85;99957.69;5088369;28;20027;-23
2021/07/15 00:19:26;;;;;;;15.60;12.23;;;;;;;24.45;61.97;99935.47;5088447;28;20112;-23
2021/07/15 00:21:51;;;;;;;17.52;12.55;;;;;;;24.27;62.28;99950.13;5088679;28;20035;-23
2021/07/15 00:24:17;;;;;;;14.85;12.50;;;;;;;24.58;61.09;99941.16;5088401;28;20384;-23
2021/07/15 00:26:46;;;;;;;18.73;12.35;;;;;;;24.84;60.22;99946.69;5088349;28;20153;-23
2021/07/15 00:29:11;;;;;;;17.08;12.95;;;;;;;25.02;59.90;99942.88;5088376;28;20036;-23
2021/07/15 00:31:37;;;;;;;18.15;12.70;;;;;;;24.85;60.30;99946.38;5086913;28;20040;-23
2021/07/15 00:34:03;;;;;;;17.85;12.73;;;;;;;24.64;60.96;99937.16;5088473;28;20024;-23
2021/07/15 00:36:28;;;;;;;15.88;12.43;;;;;;;25.00;60.51;99945.13;5088554;28;20028;-22
2021/07/15 00:38:54;;;;;;;17.80;13.80;;;;;;;25.14;59.97;99950.44;5088163;28;20101;-23
2021/07/15 00:41:19;;;;;;;17.88;13.38;;;;;;;25.10;59.42;99944.00;5088386;28;20180;-23
2021/07/15 00:43:45;;;;;;;18.98;13.50;;;;;;;25.09;59.09;99933.41;5088583;28;20028;-23
2021/07/15 00:46:10;;;;;;;17.17;13.02;;;;;;;24.31;61.97;99929.31;5088258;28;20040;-23
2021/07/15 00:48:36;;;;;;;16.75;13.02;;;;;;;24.15;63.34;99949.91;5088131;28;20031;-23
2021/07/15 00:51:01;;;;;;;15.52;13.52;;;;;;;24.53;61.72;99957.66;5087924;28;20471;-23
2021/07/15 00:53:27;;;;;;;16.17;13.55;;;;;;;24.64;61.82;99948.91;5087341;28;20411;-23
2021/07/15 00:55:52;;;;;;;16.60;13.80;;;;;;;24.72;61.15;99938.31;5070036;28;20035;-22
2021/07/15 00:58:18;;;;;;;18.42;14.15;;;;;;;24.59;61.64;99931.88;5087979;28;20036;-23
2021/07/15 01:00:48;;;;;;;18.73;14.38;;;;;;;24.83;61.15;99945.09;5087664;28;20450;-23
2021/07/15 01:03:14;;;;;;;15.75;13.30;;;;;;;23.94;64.26;99938.75;5087885;28;20081;-22
2021/07/15 01:05:42;;;;;;;18.73;13.35;;;;;;;23.53;65.71;99937.00;5087875;28;20024;-22
2021/07/15 01:08:08;;;;;;;17.73;14.27;;;;;;;23.32;66.35;99931.25;5087838;28;20036;-23
2021/07/15 01:10:36;;;;;;;18.95;13.30;;;;;;;23.54;64.86;99931.25;5087826;28;20041;-23
2021/07/15 01:13:32;;;;;;;18.02;13.52;;;;;;;23.69;64.55;99934.72;5069559;28;20265;-23
2021/07/15 01:16:06;;;;;;;15.93;13.85;;;;;;;23.40;66.29;99938.66;5087832;28;20021;-23
2021/07/15 01:18:43;;;;;;;16.65;12.30;;;;;;;23.21;65.74;99931.47;5069757;28;20040;-23
2021/07/15 01:21:31;;;;;;;15.98;13.90;;;;;;;23.48;65.49;99929.78;5070000;28;20070;-23
2021/07/15 01:24:40;;;;;;;16.02;13.45;;;;;;;23.75;65.03;99920.66;5069639;28;20032;-23
2021/07/15 01:27:43;;;;;;;16.17;13.65;;;;;;;23.58;65.13;99929.53;5072470;28;20032;-23
2021/07/15 01:30:11;;;;;;;19.17;14.30;;;;;;;23.51;65.81;99929.13;5087591;28;20028;-23
2021/07/15 01:33:15;;;;;;;15.75;13.93;;;;;;;23.43;65.90;99919.78;5053225;28;20035;-23
2021/07/15 01:36:04;;;;;;;17.95;14.20;;;;;;;23.42;66.62;99936.44;5087608;28;20071;-23
2021/07/15 01:38:34;;;;;;;18.98;15.05;;;;;;;23.20;67.18;99934.50;5069831;28;20102;-23
2021/07/15 01:41:05;;;;;;;18.52;15.30;;;;;;;23.00;67.67;99941.16;5087886;28;20043;-23
2021/07/15 01:43:36;;;;;;;19.55;15.00;;;;;;;23.12;67.29;99929.78;5073270;28;20389;-22
2021/07/15 01:46:02;;;;;;;19.00;15.13;;;;;;;23.37;66.88;99936.56;5091727;28;20050;-22
2021/07/15 01:48:28;;;;;;;19.17;14.93;;;;;;;22.86;67.81;99917.53;5073367;28;20080;-22
2021/07/15 01:50:53;;;;;;;20.33;14.98;;;;;;;23.26;66.54;99920.47;5055368;28;20048;-23
2021/07/15 01:53:19;;;;;;;18.10;14.70;;;;;;;23.54;65.36;99933.16;5052798;28;20052;-23
2021/07/15 01:55:44;;;;;;;20.80;15.07;;;;;;;23.20;67.13;99934.50;5065900;28;20085;-22
2021/07/15 01:58:10;;;;;;;20.42;14.50;;;;;;;22.78;67.82;99923.69;5056541;28;20043;-23
2021/07/15 02:00:36;;;;;;;19.08;15.55;;;;;;;22.96;67.54;99934.72;5091319;28;20109;-23
2021/07/15 02:03:04;;;;;;;19.27;15.55;;;;;;;23.06;67.07;99931.78;5056337;28;20032;-22
2021/07/15 02:05:29;;;;;;;21.13;15.45;;;;;;;22.78;68.04;99917.41;5073165;28;20040;-23
2021/07/15 02:07:55;;;;;;;21.65;15.73;;;;;;;22.68;68.82;99926.59;5072785;28;20069;-23
2021/07/15 02:10:22;;;;;;;19.33;15.73;;;;;;;22.44;69.28;99908.56;5091234;28;20027;-23
2021/07/15 02:12:48;;;;;;;19.15;15.75;;;;;;;22.53;69.34;99921.47;5072818;28;20122;-23
2021/07/15 02:15:13;;;;;;;20.42;15.70;;;;;;;22.46;69.52;99917.22;5072960;28;20028;-23
2021/07/15 02:17:39;;;;;;;18.98;15.98;;;;;;;22.40;69.56;99923.88;5056797;28;20051;-23
2021/07/15 02:20:09;;;;;;;21.02;17.23;;;;;;;22.43;69.81;99927.88;5056929;28;20554;-23
2021/07/15 02:22:35;;;;;;;24.80;17.27;;;;;;;22.37;69.79;99912.78;5072871;28;20089;-23
2021/07/15 02:25:00;;;;;;;23.90;16.88;;;;;;;22.15;70.20;99903.41;5072846;28;20020;-23
2021/07/15 02:27:25;;;;;;;27.63;17.40;;;;;;;22.22;69.78;99914.66;5072929;28;20064;-23
2021/07/15 02:29:51;;;;;;;23.45;16.80;;;;;;;22.40;69.41;99934.75;5072708;28;20027;-23
2021/07/15 02:32:16;;;;;;;23.23;16.77;;;;;;;22.24;70.11;99926.06;5072770;28;20032;-21
2021/07/15 02:34:48;;;;;;;27.15;17.80;;;;;;;22.27;69.98;99924.66;5055662;28;20043;-22
2021/07/15 02:37:13;;;;;;;21.80;16.45;;;;;;;22.40;69.16;99923.88;5072754;28;20028;-22
2021/07/15 02:39:39;;;;;;;25.98;17.45;;;;;;;22.62;68.17;99930.53;5055879;28;20024;-22
2021/07/15 02:42:04;;;;;;;24.60;17.75;;;;;;;23.10;65.60;99913.75;5090434;28;20039;-22
2021/07/15 02:44:30;;;;;;;21.13;16.98;;;;;;;22.68;66.97;99926.59;5090645;28;20399;-22
2021/07/15 02:46:55;;;;;;;21.00;16.85;;;;;;;22.45;67.98;99910.19;5055557;28;20064;-22
2021/07/15 02:49:21;;;;;;;23.67;17.50;;;;;;;22.67;67.37;99927.69;5072002;28;20032;-22
2021/07/15 02:51:46;;;;;;;25.05;17.05;;;;;;;23.29;64.31;99910.88;5090430;28;20047;-22
2021/07/15 02:54:12;;;;;;;21.80;16.88;;;;;;;23.52;63.83;99924.50;5089357;28;20393;-22
2021/07/15 02:56:41;;;;;;;32.47;17.70;;;;;;;23.40;63.54;99928.59;5089877;28;20032;-22
2021/07/15 02:59:33;;;;;;;22.92;17.50;;;;;;;23.57;63.01;99922.47;5090306;28;20070;-22
2021/07/15 03:02:16;;;;;;;24.60;17.17;;;;;;;23.62;62.71;99935.97;5089531;28;20064;-22
2021/07/15 03:04:46;;;;;;;27.35;17.88;;;;;;;23.55;63.07;99923.88;5072034;28;20032;-22
2021/07/15 03:07:11;;;;;;;21.25;17.55;;;;;;;23.38;63.38;99919.13;5055744;28;20031;-22
2021/07/15 03:09:38;;;;;;;26.65;20.00;;;;;;;23.45;63.19;99930.38;5055498;28;20031;-22
2021/07/15 03:12:07;;;;;;;56.33;32.80;;;;;;;23.54;63.17;99928.53;5071923;28;20055;-22
2021/07/15 03:14:38;;;;;;;61.72;33.97;;;;;;;23.36;63.91;99924.06;5055356;28;20062;-22
2021/07/15 03:17:05;;;;;;;50.13;30.60;;;;;;;23.41;63.78;99932.91;5055583;28;20031;-22
2021/07/15 03:19:32;;;;;;;35.90;23.52;;;;;;;23.16;63.85;99931.56;5071721;28;20038;-22
2021/07/15 03:21:59;;;;;;;30.90;20.02;;;;;;;23.18;64.33;99921.19;5055332;28;20038;-22
2021/07/15 03:24:25;;;;;;;23.23;17.75;;;;;;;23.44;63.33;99939.66;5071713;28;20141;-22
2021/07/15 03:26:51;;;;;;;23.80;17.70;;;;;;;23.59;62.54;99935.78;5071483;28;20084;-22
2021/07/15 03:29:17;;;;;;;20.83;16.83;;;;;;;23.62;62.38;99941.41;5071651;28;20036;-22
2021/07/15 03:31:43;;;;;;;25.75;17.38;;;;;;;23.58;62.73;99942.31;5054923;28;20028;-22
2021/07/15 03:34:08;;;;;;;21.40;16.38;;;;;;;23.63;62.11;99953.09;5071280;28;20092;-22
2021/07/15 03:36:34;;;;;;;24.00;17.40;;;;;;;23.43;62.95;99938.84;5054812;28;20032;-22
2021/07/15 03:38:59;;;;;;;24.95;17.63;;;;;;;23.41;63.35;99943.00;5054565;28;20040;-22
2021/07/15 03:41:25;;;;;;;25.00;15.85;;;;;;;23.07;64.88;99947.03;5071449;28;20484;-22
2021/07/15 03:43:50;;;;;;;22.30;16.85;;;;;;;23.03;65.02;99932.44;5054637;28;20040;-22
2021/07/15 03:46:16;;;;;;;18.05;16.13;;;;;;;23.19;65.10;99950.03;5071367;28;20518;-22
2021/07/15 03:48:42;;;;;;;23.30;16.33;;;;;;;23.07;65.70;99949.75;5089148;28;20107;-22
2021/07/15 03:51:09;;;;;;;20.05;16.67;;;;;;;23.16;65.72;99949.81;5054014;28;20028;-22
2021/07/15 03:53:36;;;;;;;23.50;17.23;;;;;;;23.18;65.94;99942.16;5071005;28;20079;-22
2021/07/15 03:56:01;;;;;;;18.85;15.73;;;;;;;23.38;64.96;99941.69;5089203;28;20002;-22
2021/07/15 03:58:27;;;;;;;22.05;16.60;;;;;;;23.42;65.63;99947.34;5071260;28;20033;-22
2021/07/15 04:00:56;;;;;;;23.27;16.77;;;;;;;23.62;65.15;99946.84;5071024;28;20032;-22
2021/07/15 04:03:21;;;;;;;21.52;16.80;;;;;;;23.44;65.09;99935.03;5071155;28;20487;-22
2021/07/15 04:05:47;;;;;;;22.58;18.10;;;;;;;23.52;65.59;99949.81;5071088;28;20020;-22
2021/07/15 04:08:12;;;;;;;21.80;17.55;;;;;;;23.65;64.99;99950.88;5089017;28;20032;-22
2021/07/15 04:10:38;;;;;;;22.08;18.13;;;;;;;23.81;64.96;99943.16;5054036;28;20115;-22
2021/07/15 04:13:04;;;;;;;21.33;18.08;;;;;;;23.83;64.97;99957.28;5070530;28;20036;-22
2021/07/15 04:15:38;;;;;;;23.33;16.95;;;;;;;24.05;64.43;99957.25;5070611;28;20027;-22
2021/07/15 04:18:03;;;;;;;20.67;16.65;;;;;;;24.01;64.54;99966.38;5071064;28;20039;-22
2021/07/15 04:20:29;;;;;;;19.70;17.10;;;;;;;23.93;65.18;99962.47;5071161;28;20389;-22
2021/07/15 04:22:58;;;;;;;21.73;17.52;;;;;;;23.89;65.34;99955.25;5053892;28;20063;-22
2021/07/15 04:25:23;;;;;;;19.00;16.27;;;;;;;24.05;65.48;99965.44;5070982;28;20098;-22
2021/07/15 04:27:50;;;;;;;20.00;16.13;;;;;;;24.13;64.78;99952.16;5070670;28;20032;-22
2021/07/15 04:30:16;;;;;;;27.42;17.48;;;;;;;24.30;65.03;99963.16;5088597;28;20031;-22
2021/07/15 04:33:04;;;;;;;26.00;17.30;;;;;;;24.52;64.61;99961.50;5070220;28;20043;-22
2021/07/15 04:35:30;;;;;;;30.20;17.27;;;;;;;24.51;64.07;99960.69;5088429;28;20495;-22
2021/07/15 04:37:56;;;;;;;23.27;17.67;;;;;;;24.86;63.29;99961.59;5070255;28;20036;-22
2021/07/15 04:40:22;;;;;;;20.85;17.20;;;;;;;24.85;62.96;99956.50;5070263;28;20394;-22
2021/07/15 04:42:50;;;;;;;25.67;17.48;;;;;;;24.92;63.39;99966.94;5087936;28;20813;-22
2021/07/15 04:45:16;;;;;;;20.95;17.27;;;;;;;24.38;65.32;99950.69;5070436;28;20028;-22
2021/07/15 04:47:44;;;;;;;21.67;17.17;;;;;;;24.67;64.45;99969.25;5070224;28;20043;-22
2021/07/15 04:50:16;;;;;;;24.48;18.95;;;;;;;24.53;65.25;99963.91;5070275;28;20020;-22
2021/07/15 04:52:42;;;;;;;23.27;18.23;;;;;;;24.22;66.01;99958.47;5088326;28;20043;-22
2021/07/15 04:55:08;;;;;;;24.20;19.52;;;;;;;23.81;67.57;99954.06;5088338;28;20063;-22
2021/07/15 04:57:35;;;;;;;25.90;19.35;;;;;;;23.83;67.56;99962.72;5070178;28;20028;-22
2021/07/15 05:00:01;;;;;;;23.90;19.88;;;;;;;24.02;67.56;99971.47;5053770;28;20043;-22
2021/07/15 05:02:26;;;;;;;22.38;18.50;;;;;;;24.16;66.58;99965.16;5088087;28;20032;-22
2021/07/15 05:04:53;;;;;;;22.85;18.25;;;;;;;24.53;65.55;99957.66;5087698;28;20427;-22
2021/07/15 05:07:18;;;;;;;22.10;18.00;;;;;;;24.19;66.37;99962.63;5088039;28;20096;-22
2021/07/15 05:09:44;;;;;;;26.85;17.60;;;;;;;24.31;65.59;99961.22;5088377;28;20047;-22
2021/07/15 05:12:09;;;;;;;24.60;18.42;;;;;;;24.57;64.81;99962.16;5087830;28;20024;-22
2021/07/15 05:14:40;;;;;;;24.42;17.95;;;;;;;25.08;63.77;99973.53;5088066;28;20036;-22
2021/07/15 05:17:08;;;;;;;21.80;17.92;;;;;;;25.47;62.45;99958.19;5087512;28;20034;-22
2021/07/15 05:19:33;;;;;;;24.20;17.85;;;;;;;25.58;62.25;99948.56;5087861;28;20043;-22
2021/07/15 05:21:59;;;;;;;24.50;17.65;;;;;;;25.76;61.75;99959.44;5087861;28;20036;-22
2021/07/15 05:24:24;;;;;;;21.73;17.85;;;;;;;25.41;63.28;99956.75;5087933;28;20545;-22
2021/07/15 05:26:49;;;;;;;23.35;17.10;;;;;;;25.48;62.99;99962.53;5087566;28;20032;-22
2021/07/15 05:29:16;;;;;;;21.17;15.98;;;;;;;25.09;64.33;99945.16;5069793;28;20467;-22
2021/07/15 05:31:41;;;;;;;22.52;17.08;;;;;;;25.24;63.55;99947.44;5087676;28;20107;-22
2021/07/15 05:34:07;;;;;;;20.20;17.10;;;;;;;25.32;63.89;99962.22;5087450;28;20118;-22
2021/07/15 05:36:32;;;;;;;23.75;17.20;;;;;;;25.32;63.96;99958.69;5087720;28;20035;-22
2021/07/15 05:38:58;;;;;;;23.30;17.52;;;;;;;25.27;64.07;99970.53;5087663;28;20399;-22
2021/07/15 05:41:23;;;;;;;24.60;17.77;;;;;;;25.35;64.02;99964.28;5087645;28;20043;-22
2021/07/15 05:43:49;;;;;;;22.85;17.08;;;;;;;25.62;64.45;99957.72;5087677;28;20028;-22
2021/07/15 05:46:14;;;;;;;23.92;18.38;;;;;;;26.05;62.10;99967.81;5088090;28;20846;-22
2021/07/15 05:48:40;;;;;;;21.67;17.15;;;;;;;25.76;62.46;99959.44;5087307;28;20085;-22
2021/07/15 05:51:05;;;;;;;21.95;17.08;;;;;;;26.30;60.00;99967.25;5087586;28;20039;-22
2021/07/15 05:53:31;;;;;;;30.42;18.13;;;;;;;26.42;60.17;99959.97;5087350;28;20117;-22
2021/07/15 05:55:57;;;;;;;21.83;17.80;;;;;;;26.36;60.45;99964.00;5087501;28;20024;-22
2021/07/15 05:58:22;;;;;;;21.80;16.95;;;;;;;26.71;58.47;99960.34;5087598;28;20032;-22
2021/07/15 06:00:48;;;;;;;23.48;16.73;;;;;;;26.95;58.83;99951.50;5087355;28;20541;-22
2021/07/15 06:03:13;;;;;;;23.48;17.95;;;;;;;26.66;58.99;99953.13;5087538;28;20051;-22
2021/07/15 06:05:39;;;;;;;25.20;17.83;;;;;;;26.72;58.80;99951.78;5087464;28;20021;-22
2021/07/15 06:08:05;;;;;;;22.23;16.77;;;;;;;27.05;57.92;99953.84;5087359;28;20043;-22
2021/07/15 06:10:30;;;;;;;22.92;17.70;;;;;;;27.43;56.88;99953.75;5087240;28;20020;-22
2021/07/15 06:12:56;;;;;;;22.17;17.40;;;;;;;27.29;57.06;99936.00;5087265;28;20040;-22
2021/07/15 06:15:21;;;;;;;28.05;16.60;;;;;;;27.23;55.90;99922.50;5087333;28;20043;-22
2021/07/15 06:17:47;;;;;;;31.17;18.63;;;;;;;27.28;57.64;99934.38;5087372;28;20042;-22
2021/07/15 06:20:13;;;;;;;22.20;18.25;;;;;;;27.28;57.60;99926.19;5087473;28;20444;-22
2021/07/15 06:22:44;;;;;;;25.63;18.40;;;;;;;27.48;56.47;99927.31;5087355;28;20025;-22
2021/07/15 06:25:10;;;;;;;21.88;18.30;;;;;;;27.59;57.16;99929.28;5087133;28;20050;-22
2021/07/15 06:27:37;;;;;;;24.42;17.42;;;;;;;27.67;56.32;99930.34;5087148;28;20489;-22
2021/07/15 06:30:07;;;;;;;21.50;16.70;;;;;;;27.39;56.49;99924.66;5089590;28;20487;-23
2021/07/15 06:32:33;;;;;;;23.63;18.33;;;;;;;27.74;55.29;99916.09;5091110;28;20089;-22
2021/07/15 06:34:58;;;;;;;23.67;16.60;;;;;;;27.96;54.67;99929.44;5090629;28;20091;-22
2021/07/15 06:37:26;;;;;;;21.67;16.73;;;;;;;27.77;56.16;99920.94;5090711;28;20388;-22
2021/07/15 06:39:52;;;;;;;21.88;16.73;;;;;;;27.57;55.94;99906.13;5056239;28;20089;-22
2021/07/15 06:42:18;;;;;;;21.88;16.70;;;;;;;27.87;55.72;99922.44;5055940;28;20036;-21
2021/07/15 06:44:43;;;;;;;20.40;16.08;;;;;;;28.10;54.13;99920.09;5090283;28;20031;-22
2021/07/15 06:47:09;;;;;;;22.67;15.98;;;;;;;27.98;54.90;99913.44;5090980;28;20023;-22
2021/07/15 06:49:35;;;;;;;21.77;15.30;;;;;;;28.24;53.00;99920.59;5073094;28;20604;-22
2021/07/15 06:52:00;;;;;;;21.20;16.25;;;;;;;28.45;52.36;99918.53;5090186;28;20036;-22
2021/07/15 06:54:26;;;;;;;19.52;16.55;;;;;;;28.63;53.54;99908.16;5089865;28;20048;-22
2021/07/15 06:56:51;;;;;;;18.95;14.95;;;;;;;28.30;53.52;99899.19;5090026;28;20024;-22
2021/07/15 06:59:17;;;;;;;19.67;14.90;;;;;;;27.87;54.37;99911.47;5071985;28;20071;-22
2021/07/15 07:01:42;;;;;;;18.30;14.52;;;;;;;27.80;53.91;99912.00;5090085;28;20105;-22
2021/07/15 07:04:08;;;;;;;18.38;14.52;;;;;;;28.09;53.30;99894.63;5090165;28;20032;-22
2021/07/15 07:06:33;;;;;;;17.08;14.77;;;;;;;28.35;52.88;99905.25;5090390;28;20403;-22
2021/07/15 07:08:59;;;;;;;18.75;14.32;;;;;;;28.67;53.72;99894.56;5089799;28;20072;-22
2021/07/15 07:11:24;;;;;;;17.85;15.50;;;;;;;28.79;51.75;99902.75;5090008;28;20032;-22
2021/07/15 07:13:50;;;;;;;21.60;14.90;;;;;;;29.12;51.24;99895.53;5089900;28;20032;-22
2021/07/15 07:16:15;;;;;;;18.25;15.25;;;;;;;29.49;49.65;99900.88;5090066;28;20028;-22
2021/07/15 07:18:40;;;;;;;21.98;15.50;;;;;;;29.42;49.79;99902.25;5089629;28;20032;-22
2021/07/15 07:21:06;;;;;;;17.40;13.60;;;;;;;29.48;50.44;99888.25;5089943;28;20031;-22
2021/07/15 07:23:31;;;;;;;12.32;10.38;;;;;;;28.88;46.47;99883.41;5090158;28;20812;-22
2021/07/15 07:25:57;;;;;;;19.30;13.32;;;;;;;29.13;46.55;99884.16;5089945;28;20400;-22
2021/07/15 07:28:22;;;;;;;15.13;11.57;;;;;;;29.42;46.27;99893.19;5090045;28;20036;-22
2021/07/15 07:30:48;;;;;;;17.20;12.43;;;;;;;29.22;46.21;99882.09;5089556;28;20032;-22
2021/07/15 07:33:13;;;;;;;15.88;12.27;;;;;;;29.41;45.02;99888.88;5089779;28;20032;-22
2021/07/15 07:35:39;;;;;;;15.25;12.93;;;;;;;29.09;47.68;99877.75;5089677;28;20491;-22
2021/07/15 07:38:04;;;;;;;15.50;12.70;;;;;;;29.17;49.44;99887.81;5088975;28;20054;-22
2021/07/15 07:40:30;;;;;;;18.50;12.40;;;;;;;29.43;46.74;99883.84;5089373;28;20479;-22
2021/07/15 07:42:55;;;;;;;15.38;11.35;;;;;;;29.78;45.18;99881.25;5089237;28;20067;-22
2021/07/15 07:45:21;;;;;;;17.13;11.60;;;;;;;29.52;46.63;99884.47;5089613;28;20028;-22
2021/07/15 07:47:46;;;;;;;15.20;11.93;;;;;;;29.28;47.05;99885.38;5089406;28;20441;-22
2021/07/15 07:50:13;;;;;;;14.73;11.98;;;;;;;29.14;47.74;99869.31;5089448;28;20113;-22
2021/07/15 07:52:38;;;;;;;18.33;13.23;;;;;;;29.51;48.05;99879.34;5089295;28;20051;-22
2021/07/15 07:55:05;;;;;;;16.85;12.55;;;;;;;29.23;47.09;99872.69;5088888;28;20055;-22
2021/07/15 07:57:33;;;;;;;14.80;12.32;;;;;;;29.17;47.50;99882.31;5089446;28;20024;-22
2021/07/15 08:00:00;;;;;;;15.10;11.60;;;;;;;29.32;47.55;99875.31;5088992;28;20487;-21
2021/07/15 08:02:25;;;;;;;16.23;12.27;;;;;;;29.75;45.87;99864.66;5089273;28;20028;-22
2021/07/15 08:04:51;;;;;;;19.55;11.95;;;;;;;30.02;46.40;99869.31;5089344;28;20024;-22
2021/07/15 08:07:17;;;;;;;16.48;12.88;;;;;;;29.89;47.14;99883.47;5089465;28;20036;-22
2021/07/15 08:09:46;;;;;;;15.80;13.18;;;;;;;29.94;45.67;99884.03;5088984;28;20073;-22
2021/07/15 08:12:13;;;;;;;18.13;13.63;;;;;;;29.68;47.98;99858.97;5089317;28;20077;-22
2021/07/15 08:14:38;;;;;;;21.30;13.05;;;;;;;30.02;47.27;99869.31;5089379;28;20089;-22
2021/07/15 08:17:04;;;;;;;16.90;12.25;;;;;;;30.31;44.79;99864.53;5088817;28;20068;-22
2021/07/15 08:19:29;;;;;;;14.80;12.30;;;;;;;30.33;45.66;99873.22;5070794;28;20162;-22
2021/07/15 08:21:55;;;;;;;13.60;11.50;;;;;;;30.37;43.73;99863.09;5088969;28;20036;-22
2021/07/15 08:24:21;;;;;;;18.55;12.20;;;;;;;30.86;44.57;99853.56;5088831;28;20038;-22
2021/07/15 08:26:47;;;;;;;13.65;11.77;;;;;;;31.23;42.34;99848.44;5088589;28;20151;-22
2021/07/15 08:29:12;;;;;;;15.40;11.10;;;;;;;31.22;42.34;99851.53;5088797;28;20036;-22
2021/07/15 08:31:38;;;;;;;16.52;10.50;;;;;;;30.84;43.31;99848.41;5088727;28;20036;-22
2021/07/15 08:34:03;;;;;;;13.57;9.77;;;;;;;30.89;43.32;99854.81;5088513;28;20036;-22
2021/07/15 08:36:31;;;;;;;13.90;10.13;;;;;;;31.14;40.91;99845.13;5088449;28;20039;-22
2021/07/15 08:38:57;;;;;;;13.50;10.07;;;;;;;31.08;40.70;99843.81;5088504;28;20027;-22
2021/07/15 08:41:23;;;;;;;10.93;9.30;;;;;;;30.69;41.20;99834.69;5088498;28;20043;-22
2021/07/15 08:43:49;;;;;;;16.75;10.30;;;;;;;31.09;42.45;99837.13;5070481;28;20024;-22
2021/07/15 08:46:15;;;;;;;13.48;10.07;;;;;;;30.71;41.19;99846.13;5070568;28;20059;-22
2021/07/15 08:48:40;;;;;;;13.48;9.13;;;;;;;31.19;39.97;99838.50;5070083;28;20020;-22
2021/07/15 08:51:07;;;;;;;11.65;9.38;;;;;;;31.52;40.60;99843.47;5069813;28;20072;-22
2021/07/15 08:53:35;;;;;;;13.77;9.43;;;;;;;31.60;38.96;99836.16;5069923;28;20423;-22
2021/07/15 08:58:46;;;;;;;10.82;9.48;;;;;;;31.56;37.34;99827.00;5053142;28;20032;-22
2021/07/15 09:01:11;;;;;;;12.80;9.00;;;;;;;31.75;37.99;99826.16;5068213;28;20028;-21
2021/07/15 09:03:37;;;;;;;12.93;9.13;;;;;;;31.56;38.57;99827.81;5068152;28;20178;-22
2021/07/15 09:06:02;;;;;;;12.32;9.07;;;;;;;31.41;37.90;99826.72;5068033;28;20077;-22
2021/07/15 09:08:31;;;;;;;13.57;9.75;;;;;;;32.26;36.74;99814.78;5033606;28;20036;-22
2021/07/15 09:10:58;;;;;;;12.27;8.90;;;;;;;32.78;34.32;99823.41;5049824;28;20043;-22
2021/07/15 09:13:24;;;;;;;12.95;8.60;;;;;;;32.79;34.00;99820.25;5067942;28;20032;-22
2021/07/15 09:15:49;;;;;;;12.38;9.02;;;;;;;33.03;34.78;99830.00;5075866;28;20527;-22
2021/07/15 09:18:15;;;;;;;14.68;8.98;;;;;;;32.58;34.80;99822.75;5088038;28;20067;-22
2021/07/15 09:20:41;;;;;;;11.98;8.23;;;;;;;32.97;34.51;99826.00;5087762;28;20028;-22
2021/07/15 09:23:08;;;;;;;9.93;8.35;;;;;;;33.18;33.43;99822.72;5059202;28;20040;-22
2021/07/15 09:25:36;;;;;;;9.18;7.55;;;;;;;32.90;33.33;99822.38;5085207;28;20032;-23
2021/07/15 09:28:02;;;;;;;13.18;8.25;;;;;;;33.11;33.00;99819.88;5087863;28;20035;-22
2021/07/15 09:30:28;;;;;;;9.70;7.35;;;;;;;33.68;30.60;99807.84;5069292;28;20024;-22
2021/07/15 09:32:57;;;;;;;10.80;6.93;;;;;;;33.34;30.87;99808.66;5069333;28;20055;-22
2021/07/15 09:35:29;;;;;;;9.20;6.78;;;;;;;32.92;32.24;99800.69;5087998;28;20020;-21
2021/07/15 09:37:55;;;;;;;10.50;7.00;;;;;;;33.11;31.33;99802.50;5087597;28;20028;-22
2021/07/15 09:41:00;;;;;;;12.65;7.47;;;;;;;33.45;31.22;99788.63;5087706;28;20028;-22
2021/07/15 09:43:36;;;;;;;9.30;7.18;;;;;;;33.01;30.58;99771.59;5005511;28;20482;-22
2021/07/15 09:46:11;;;;;;;11.38;7.38;;;;;;;32.97;31.75;99786.53;5078349;28;20461;-23
2021/07/15 09:48:36;;;;;;;11.10;6.53;;;;;;;32.85;30.14;99784.03;5087208;28;20031;-22
2021/07/15 09:51:02;;;;;;;11.07;7.22;;;;;;;32.83;31.19;99776.13;5078883;28;20041;-22
2021/07/15 09:53:29;;;;;;;9.85;7.05;;;;;;;33.47;30.22;99787.09;5082067;28;20056;-22
2021/07/15 09:56:04;;;;;;;10.95;6.80;;;;;;;33.88;28.98;99775.19;5087317;28;20055;-22
2021/07/15 09:58:33;;;;;;;9.73;6.50;;;;;;;34.05;28.12;99780.06;5087422;28;20528;-22
2021/07/15 10:01:09;;;;;;;10.40;5.95;;;;;;;34.30;27.74;99787.75;5086996;28;20483;-24
2021/07/15 10:03:35;;;;;;;10.82;6.18;;;;;;;34.25;26.31;99780.59;5089188;28;20032;-24
2021/07/15 10:06:03;;;;;;;10.02;6.18;;;;;;;34.19;26.55;99776.63;5091238;28;20024;-24
2021/07/15 10:08:32;;;;;;;8.35;6.40;;;;;;;34.38;27.73;99778.28;5091229;28;20047;-23
2021/07/15 10:11:20;;;;;;;8.50;6.43;;;;;;;34.91;28.03;99772.19;5091128;28;20039;-24
2021/07/15 10:14:09;;;;;;;9.82;6.13;;;;;;;34.43;29.88;99764.09;5091210;28;20024;-23
2021/07/15 10:16:36;;;;;;;15.27;6.43;;;;;;;33.49;27.67;99746.03;5080301;28;20112;-23
2021/07/15 10:19:01;;;;;;;10.07;6.57;;;;;;;34.23;27.65;99766.34;5090724;28;20032;-23
2021/07/15 10:21:28;;;;;;;12.63;6.40;;;;;;;33.97;27.68;99759.84;5090895;28;20067;-24
2021/07/15 10:23:54;;;;;;;11.13;6.50;;;;;;;34.25;28.34;99769.53;5074347;28;20510;-24
2021/07/15 10:26:19;;;;;;;9.82;6.07;;;;;;;34.11;28.97;99756.38;5076606;28;20032;-24
2021/07/15 10:28:47;;;;;;;9.95;5.95;;;;;;;34.70;28.06;99738.91;5090297;28;20031;-25
2021/07/15 10:31:13;;;;;;;10.55;5.90;;;;;;;34.77;28.50;99750.00;5090853;28;20186;-23
2021/07/15 10:33:40;;;;;;;10.88;5.78;;;;;;;34.61;26.11;99748.34;5090717;28;20032;-24
2021/07/15 10:36:06;;;;;;;8.65;5.50;;;;;;;34.48;26.64;99749.06;5072799;28;20028;-23
2021/07/15 10:38:41;;;;;;;7.50;5.30;;;;;;;33.92;27.97;99753.88;5090896;28;20042;-24
2021/07/15 10:41:07;;;;;;;8.32;5.53;;;;;;;34.59;26.25;99744.38;5090677;28;20059;-23
2021/07/15 10:43:33;;;;;;;8.65;4.93;;;;;;;34.17;27.15;99740.22;5090591;28;20510;-23
2021/07/15 10:46:01;;;;;;;11.00;5.63;;;;;;;34.86;26.83;99741.31;5072443;28;20024;-24
2021/07/15 10:48:27;;;;;;;8.85;5.15;;;;;;;35.36;24.92;99735.88;5090195;28;20024;-23
2021/07/15 10:50:53;;;;;;;10.68;5.18;;;;;;;35.39;25.35;99746.16;5090325;28;20508;-24
2021/07/15 10:53:18;;;;;;;9.77;5.20;;;;;;;35.28;25.94;99746.16;5090229;28;20082;-24
2021/07/15 10:55:44;;;;;;;8.85;5.13;;;;;;;35.12;25.30;99740.97;5055648;28;20484;-24
2021/07/15 10:58:10;;;;;;;7.93;5.00;;;;;;;35.17;25.99;99743.41;5072087;28;20032;-23
2021/07/15 11:00:36;;;;;;;7.05;5.25;;;;;;;35.60;23.94;99739.84;5090573;28;20028;-23
2021/07/15 11:03:23;;;;;;;9.95;4.72;;;;;;;35.00;24.73;99738.56;5086330;28;20039;-24
2021/07/15 11:05:54;;;;;;;7.65;4.72;;;;;;;35.42;24.32;99728.75;5089973;28;20161;-23
2021/07/15 11:08:39;;;;;;;8.32;5.32;;;;;;;35.49;24.84;99723.22;5089038;28;20040;-24
2021/07/15 11:11:05;;;;;;;7.90;4.90;;;;;;;35.34;25.94;99716.09;5069783;28;20040;-23
2021/07/15 11:13:30;;;;;;;8.65;5.53;;;;;;;35.32;25.88;99735.09;5078688;28;20166;-23
2021/07/15 11:15:56;;;;;;;8.25;5.43;;;;;;;35.74;24.09;99716.88;5051708;28;20113;-24
2021/07/15 11:18:51;;;;;;;7.63;5.45;;;;;;;35.60;24.60;99712.91;5083195;28;20028;-23
2021/07/15 11:21:26;;;;;;;8.37;5.53;;;;;;;35.87;26.29;99729.13;5075263;28;20423;-23
2021/07/15 11:24:37;;;;;;;10.88;5.53;;;;;;;36.31;25.53;99722.31;5075835;28;20309;-23
2021/07/15 11:27:29;;;;;;;7.60;5.32;;;;;;;36.78;24.02;99717.34;5083473;28;20407;-23